createdAt,value
2019-03-21T00:01:15.081Z,7.64
2019-03-21T00:03:47.993Z,7.65
2019-03-21T00:06:18.567Z,7.75
2019-03-21T00:08:48.916Z,7.71
2019-03-21T00:11:55.076Z,7.75
2019-03-21T00:14:51.054Z,7.73
2019-03-21T00:17:30.493Z,7.71
2019-03-21T00:20:00.676Z,7.72
2019-03-21T00:22:31.029Z,7.73
2019-03-21T00:25:02.423Z,7.76
2019-03-21T00:27:33.073Z,7.80
2019-03-21T00:30:05.140Z,7.76
2019-03-21T00:32:35.379Z,7.74
2019-03-21T00:35:08.408Z,7.75
2019-03-21T00:37:38.718Z,7.75
2019-03-21T00:40:19.931Z,7.78
2019-03-21T00:42:50.379Z,7.82
2019-03-21T00:45:20.663Z,7.86
2019-03-21T00:47:51.264Z,7.86
2019-03-21T00:50:24.453Z,7.82
2019-03-21T00:52:56.273Z,7.87
2019-03-21T00:55:29.673Z,7.89
2019-03-21T00:57:59.948Z,7.95
2019-03-21T01:00:54.291Z,8.05
2019-03-21T01:03:24.529Z,8.05
2019-03-21T01:05:54.779Z,8.01
2019-03-21T01:08:25.386Z,7.96
2019-03-21T01:10:55.657Z,8.00
2019-03-21T01:13:30.795Z,8.03
2019-03-21T01:16:01.066Z,8.01
2019-03-21T01:18:31.303Z,7.99
2019-03-21T01:21:01.738Z,8.04
2019-03-21T01:23:32.309Z,8.06
2019-03-21T01:26:08.110Z,8.06
2019-03-21T01:28:38.852Z,8.04
2019-03-21T01:31:09.498Z,8.07
2019-03-21T01:33:40.119Z,8.05
2019-03-21T01:36:10.775Z,8.01
2019-03-21T01:38:42.462Z,7.97
2019-03-21T01:41:15.322Z,8.01
2019-03-21T01:43:45.535Z,7.98
2019-03-21T01:46:24.670Z,7.95
2019-03-21T01:48:55.250Z,7.87
2019-03-21T01:51:25.563Z,7.92
2019-03-21T01:53:56.397Z,7.89
2019-03-21T01:56:28.566Z,7.86
2019-03-21T01:58:59.187Z,7.86
2019-03-21T02:01:29.523Z,7.81
2019-03-21T02:03:59.737Z,7.86
2019-03-21T02:06:30.002Z,7.89
2019-03-21T02:09:00.206Z,7.88
2019-03-21T02:11:32.342Z,7.86
2019-03-21T02:14:03.073Z,7.89
2019-03-21T02:16:33.703Z,7.83
2019-03-21T02:19:04.358Z,7.81
2019-03-21T02:21:34.642Z,7.81
2019-03-21T02:24:05.522Z,7.78
2019-03-21T02:26:36.081Z,7.75
2019-03-21T02:29:06.738Z,7.74
2019-03-21T02:31:37.023Z,7.76
2019-03-21T02:34:07.683Z,7.77
2019-03-21T02:36:38.276Z,7.80
2019-03-21T02:39:08.474Z,7.77
2019-03-21T02:41:38.729Z,7.76
2019-03-21T02:44:08.959Z,7.76
2019-03-21T02:46:39.175Z,7.77
2019-03-21T02:49:09.742Z,7.73
2019-03-21T02:51:40.417Z,7.74
2019-03-21T02:54:10.774Z,7.77
2019-03-21T02:56:41.020Z,7.72
2019-03-21T02:59:11.233Z,7.75
2019-03-21T03:01:41.457Z,7.81
2019-03-21T03:04:12.061Z,7.77
2019-03-21T03:06:42.372Z,7.74
2019-03-21T03:09:12.693Z,7.78
2019-03-21T03:11:43.162Z,7.75
2019-03-21T03:14:13.723Z,7.76
2019-03-21T03:16:44.103Z,7.77
2019-03-21T03:19:14.666Z,7.75
2019-03-21T03:21:44.976Z,7.79
2019-03-21T03:24:15.621Z,7.79
2019-03-21T03:26:46.883Z,7.76
2019-03-21T03:29:17.116Z,7.72
2019-03-21T03:31:47.352Z,7.73
2019-03-21T03:34:17.935Z,7.83
2019-03-21T03:36:48.211Z,7.82
2019-03-21T03:39:18.441Z,7.79
2019-03-21T03:41:48.654Z,7.78
2019-03-21T03:44:19.250Z,7.79
2019-03-21T03:46:49.537Z,7.79
2019-03-21T03:49:19.754Z,7.84
2019-03-21T03:51:49.964Z,7.75
2019-03-21T03:54:20.442Z,7.74
2019-03-21T03:56:50.888Z,7.77
2019-03-21T03:59:21.138Z,7.75
2019-03-21T04:01:52.189Z,7.78
2019-03-21T04:04:22.720Z,7.76
2019-03-21T04:06:52.929Z,7.78
2019-03-21T04:09:23.241Z,7.74
2019-03-21T04:11:53.542Z,7.78
2019-03-21T04:14:23.755Z,7.74
2019-03-21T04:16:54.322Z,7.72
2019-03-21T04:19:24.951Z,7.71
2019-03-21T04:21:55.253Z,7.72
2019-03-21T04:24:26.539Z,7.70
2019-03-21T04:26:56.775Z,7.70
2019-03-21T04:29:27.055Z,7.67
2019-03-21T04:31:57.662Z,7.61
2019-03-21T04:34:28.385Z,7.64
2019-03-21T04:36:59.087Z,7.63
2019-03-21T04:39:29.372Z,7.62
2019-03-21T04:41:59.600Z,7.61
2019-03-21T04:44:30.167Z,7.62
2019-03-21T04:47:00.541Z,7.62
2019-03-21T04:49:30.780Z,7.61
2019-03-21T04:52:02.414Z,7.60
2019-03-21T04:54:32.700Z,7.59
2019-03-21T04:57:02.913Z,7.62
2019-03-21T04:59:33.157Z,7.63
2019-03-21T05:02:03.371Z,7.62
2019-03-21T05:04:33.610Z,7.65
2019-03-21T05:07:04.193Z,7.63
2019-03-21T05:09:34.519Z,7.60
2019-03-21T05:12:04.796Z,7.64
2019-03-21T05:14:35.414Z,7.64
2019-03-21T05:17:05.726Z,7.64
2019-03-21T05:19:35.940Z,7.67
2019-03-21T05:22:06.522Z,7.71
2019-03-21T05:24:36.839Z,7.68
2019-03-21T05:27:07.428Z,7.67
2019-03-21T05:29:38.104Z,7.70
2019-03-21T05:32:08.384Z,7.76
2019-03-21T05:34:38.962Z,7.76
2019-03-21T05:37:09.595Z,7.70
2019-03-21T05:39:40.247Z,7.78
2019-03-21T05:42:12.707Z,7.78
2019-03-21T05:44:43.710Z,7.87
2019-03-21T05:47:14.510Z,7.88
2019-03-21T05:49:45.331Z,7.90
2019-03-21T05:52:15.653Z,7.93
2019-03-21T05:54:45.868Z,7.97
2019-03-21T05:57:16.468Z,7.97
2019-03-21T05:59:46.746Z,7.94
2019-03-21T06:02:17.026Z,7.95
2019-03-21T06:04:47.614Z,7.96
2019-03-21T06:07:23.233Z,8.03
2019-03-21T06:09:53.916Z,8.07
2019-03-21T06:12:24.208Z,8.11
2019-03-21T06:14:57.492Z,8.20
2019-03-21T06:17:28.693Z,8.26
2019-03-21T06:20:04.091Z,8.39
2019-03-21T06:22:47.619Z,8.44
2019-03-21T06:25:28.417Z,8.53
2019-03-21T06:27:58.693Z,8.62
2019-03-21T06:30:28.927Z,8.68
2019-03-21T06:32:59.141Z,8.76
2019-03-21T06:35:29.371Z,8.84
2019-03-21T06:37:59.982Z,8.84
2019-03-21T06:40:30.780Z,8.94
2019-03-21T06:43:01.061Z,9.06
2019-03-21T06:45:31.634Z,9.11
2019-03-21T06:48:02.317Z,9.11
2019-03-21T06:50:32.591Z,9.14
2019-03-21T06:53:03.455Z,9.14
2019-03-21T06:55:35.177Z,9.29
2019-03-21T06:58:06.411Z,9.38
2019-03-21T07:00:38.707Z,9.41
2019-03-21T07:03:10.424Z,9.56
2019-03-21T07:05:40.658Z,9.75
2019-03-21T07:08:11.385Z,9.79
2019-03-21T07:10:42.190Z,9.82
2019-03-21T07:13:13.473Z,9.95
2019-03-21T07:15:43.738Z,10.03
2019-03-21T07:18:13.952Z,10.02
2019-03-21T07:20:44.256Z,10.03
2019-03-21T07:23:14.796Z,10.07
2019-03-21T07:25:45.439Z,10.10
2019-03-21T07:28:16.140Z,10.08
2019-03-21T07:30:46.563Z,10.16
2019-03-21T07:33:16.841Z,10.26
2019-03-21T07:35:47.275Z,10.46
2019-03-21T07:38:18.868Z,10.60
2019-03-21T07:40:49.202Z,10.92
2019-03-21T07:43:22.283Z,11.14
2019-03-21T07:45:52.459Z,11.40
2019-03-21T07:48:22.713Z,11.72
2019-03-21T07:50:53.329Z,11.88
2019-03-21T07:53:23.603Z,12.04
2019-03-21T07:55:56.588Z,12.07
2019-03-21T07:58:27.354Z,12.16
2019-03-21T08:00:58.070Z,12.22
2019-03-21T08:03:28.727Z,12.13
2019-03-21T08:06:06.785Z,12.12
2019-03-21T08:08:39.912Z,12.27
2019-03-21T08:11:10.093Z,12.44
2019-03-21T08:13:40.690Z,12.46
2019-03-21T08:16:11.422Z,12.86
2019-03-21T08:18:44.783Z,13.23
2019-03-21T08:21:15.186Z,13.37
2019-03-21T08:23:46.615Z,13.40
2019-03-21T08:26:16.898Z,13.52
2019-03-21T08:28:52.468Z,13.73
2019-03-21T08:31:22.850Z,13.87
2019-03-21T08:33:54.966Z,14.29
2019-03-21T08:36:25.809Z,14.35
2019-03-21T08:38:56.482Z,14.65
2019-03-21T08:41:27.194Z,14.61
2019-03-21T08:43:57.875Z,14.62
2019-03-21T08:46:28.176Z,14.69
2019-03-21T08:48:59.314Z,14.50
2019-03-21T08:51:29.645Z,14.49
2019-03-21T08:54:02.055Z,14.28
2019-03-21T08:56:32.349Z,14.46
2019-03-21T08:59:02.954Z,15.04
2019-03-21T09:01:33.934Z,15.34
2019-03-21T09:04:04.533Z,15.36
2019-03-21T09:06:35.177Z,14.88
2019-03-21T09:09:09.112Z,14.25
2019-03-21T09:11:41.757Z,13.71
2019-03-21T09:14:12.559Z,13.15
2019-03-21T09:16:42.860Z,12.78
2019-03-21T09:19:14.895Z,12.67
2019-03-21T09:21:45.582Z,12.68
2019-03-21T09:24:16.290Z,12.80
2019-03-21T09:26:46.704Z,13.06
2019-03-21T09:29:18.583Z,13.22
2019-03-21T09:31:49.857Z,13.18
2019-03-21T09:34:23.119Z,13.13
2019-03-21T09:36:53.774Z,12.98
2019-03-21T09:39:24.821Z,12.75
2019-03-21T09:41:55.615Z,12.41
2019-03-21T09:44:31.415Z,12.23
2019-03-21T09:47:06.100Z,12.04
2019-03-21T09:49:40.974Z,12.02
2019-03-21T09:52:13.111Z,12.31
2019-03-21T09:54:43.447Z,12.92
2019-03-21T09:57:14.155Z,13.51
2019-03-21T09:59:50.966Z,14.03
2019-03-21T10:02:22.737Z,14.17
2019-03-21T10:04:53.939Z,14.06
2019-03-21T10:07:26.090Z,13.67
2019-03-21T10:09:56.330Z,13.20
2019-03-21T10:12:26.618Z,12.93
2019-03-21T10:14:57.224Z,12.80
2019-03-21T10:17:28.788Z,12.94
2019-03-21T10:19:59.799Z,13.11
2019-03-21T10:22:34.722Z,13.17
2019-03-21T10:25:07.661Z,13.44
2019-03-21T10:27:37.963Z,13.62
2019-03-21T10:30:18.716Z,13.72
2019-03-21T10:32:49.877Z,13.92
2019-03-21T10:35:22.742Z,13.89
2019-03-21T10:37:53.435Z,13.75
2019-03-21T10:40:23.816Z,13.70
2019-03-21T10:42:54.413Z,13.74
2019-03-21T10:45:24.719Z,13.90
2019-03-21T10:47:55.255Z,14.33
2019-03-21T10:50:41.030Z,14.80
2019-03-21T10:53:11.354Z,15.38
2019-03-21T10:55:41.689Z,15.58
2019-03-21T10:58:12.343Z,15.29
2019-03-21T11:00:43.143Z,15.23
2019-03-21T11:03:14.365Z,15.06
2019-03-21T11:05:44.623Z,14.83
2019-03-21T11:08:15.005Z,14.82
2019-03-21T11:10:47.245Z,15.05
2019-03-21T11:13:18.703Z,15.46
2019-03-21T11:15:49.403Z,15.76
2019-03-21T11:18:20.069Z,15.79
2019-03-21T11:20:50.878Z,15.93
2019-03-21T11:23:21.769Z,15.83
2019-03-21T11:25:53.201Z,15.63
2019-03-21T11:28:23.859Z,15.46
2019-03-21T11:30:56.417Z,15.26
2019-03-21T11:33:26.696Z,15.11
2019-03-21T11:35:56.956Z,14.97
2019-03-21T11:38:28.193Z,14.77
2019-03-21T11:40:58.789Z,14.43
2019-03-21T11:43:29.304Z,14.33
2019-03-21T11:46:02.457Z,14.27
2019-03-21T11:48:32.724Z,14.19
2019-03-21T11:51:03.285Z,14.10
2019-03-21T11:53:34.045Z,13.91
2019-03-21T11:56:04.374Z,13.91
2019-03-21T11:58:34.647Z,14.10
2019-03-21T12:01:05.331Z,14.48
2019-03-21T12:03:35.678Z,14.59
2019-03-21T12:06:05.980Z,14.64
2019-03-21T12:08:36.204Z,14.79
2019-03-21T12:11:06.534Z,14.91
2019-03-21T12:13:37.093Z,15.02
2019-03-21T12:16:07.343Z,15.11
2019-03-21T12:18:37.574Z,15.04
2019-03-21T12:21:07.869Z,14.95
2019-03-21T12:23:38.412Z,14.85
2019-03-21T12:26:09.105Z,14.89
2019-03-21T12:28:39.449Z,14.90
2019-03-21T12:31:09.867Z,14.80
2019-03-21T12:33:40.509Z,14.57
2019-03-21T12:36:11.168Z,14.27
2019-03-21T12:38:41.574Z,14.04
2019-03-21T12:41:16.440Z,14.03
2019-03-21T12:43:48.645Z,14.01
2019-03-21T12:46:18.926Z,13.95
2019-03-21T12:48:49.529Z,13.88
2019-03-21T12:51:20.210Z,13.82
2019-03-21T12:53:50.941Z,13.85
2019-03-21T12:56:23.310Z,13.86
2019-03-21T12:58:53.902Z,14.08
2019-03-21T13:01:24.404Z,13.98
2019-03-21T13:03:54.760Z,13.81
2019-03-21T13:06:25.086Z,13.78
2019-03-21T13:08:55.662Z,13.67
2019-03-21T13:11:26.334Z,13.61
2019-03-21T13:13:56.984Z,13.73
2019-03-21T13:16:27.487Z,13.90
2019-03-21T13:18:57.818Z,14.25
2019-03-21T13:21:28.139Z,14.54
2019-03-21T13:23:58.472Z,14.75
2019-03-21T13:26:29.286Z,14.96
2019-03-21T13:29:01.181Z,15.10
2019-03-21T13:31:31.758Z,15.20
2019-03-21T13:34:02.510Z,15.27
2019-03-21T13:36:32.960Z,15.26
2019-03-21T13:39:04.366Z,15.27
2019-03-21T13:41:36.374Z,15.16
2019-03-21T13:44:10.003Z,15.02
2019-03-21T13:46:40.371Z,14.86
2019-03-21T13:49:11.155Z,14.69
2019-03-21T13:51:41.955Z,14.71
2019-03-21T13:54:12.740Z,14.58
2019-03-21T13:56:43.257Z,14.63
2019-03-21T13:59:14.592Z,14.74
2019-03-21T14:01:45.263Z,14.70
2019-03-21T14:04:16.026Z,14.48
2019-03-21T14:06:46.858Z,14.30
2019-03-21T14:09:20.247Z,14.04
2019-03-21T14:11:50.381Z,13.83
2019-03-21T14:14:20.964Z,13.65
2019-03-21T14:16:53.083Z,13.43
2019-03-21T14:19:23.650Z,13.26
2019-03-21T14:21:54.449Z,13.00
2019-03-21T14:24:24.925Z,12.77
2019-03-21T14:26:55.232Z,12.54
2019-03-21T14:29:25.617Z,12.53
2019-03-21T14:31:55.872Z,12.50
2019-03-21T14:34:26.153Z,12.58
2019-03-21T14:36:56.391Z,12.66
2019-03-21T14:39:26.874Z,12.72
2019-03-21T14:41:57.600Z,12.83
2019-03-21T14:44:28.403Z,13.05
2019-03-21T14:46:58.862Z,13.27
2019-03-21T14:49:30.809Z,13.36
2019-03-21T14:52:01.116Z,13.31
2019-03-21T14:54:31.332Z,13.18
2019-03-21T14:57:01.922Z,13.07
2019-03-21T14:59:32.626Z,12.93
2019-03-21T15:02:03.030Z,12.72
2019-03-21T15:04:33.433Z,12.64
2019-03-21T15:07:04.162Z,12.55
2019-03-21T15:09:34.944Z,12.50
2019-03-21T15:12:05.711Z,12.44
2019-03-21T15:14:36.670Z,12.37
2019-03-21T15:17:07.104Z,12.35
2019-03-21T15:19:39.370Z,12.29
2019-03-21T15:22:10.203Z,12.22
2019-03-21T15:24:42.281Z,12.17
2019-03-21T15:27:13.689Z,12.11
2019-03-21T15:29:44.825Z,11.98
2019-03-21T15:32:15.158Z,11.93
2019-03-21T15:34:45.732Z,11.89
2019-03-21T15:37:16.028Z,11.96
2019-03-21T15:39:46.606Z,11.96
2019-03-21T15:42:16.959Z,11.99
2019-03-21T15:44:47.519Z,12.00
2019-03-21T15:47:17.836Z,12.07
2019-03-21T15:49:48.637Z,12.10
2019-03-21T15:52:18.962Z,12.12
2019-03-21T15:54:49.526Z,12.13
2019-03-21T15:57:19.850Z,12.14
2019-03-21T15:59:52.457Z,12.19
2019-03-21T16:02:22.357Z,12.15
2019-03-21T16:04:52.789Z,12.16
2019-03-21T16:07:23.010Z,12.15
2019-03-21T16:09:53.228Z,12.09
2019-03-21T16:12:23.908Z,12.06
2019-03-21T16:14:54.653Z,11.98
2019-03-21T16:17:24.940Z,11.90
2019-03-21T16:19:55.573Z,11.89
2019-03-21T16:22:26.249Z,11.88
2019-03-21T16:24:56.546Z,11.90
2019-03-21T16:27:27.538Z,11.87
2019-03-21T16:30:00.780Z,11.82
2019-03-21T16:32:31.158Z,11.82
2019-03-21T16:35:01.465Z,11.83
2019-03-21T16:37:32.066Z,11.77
2019-03-21T16:40:02.707Z,11.71
2019-03-21T16:42:33.347Z,11.63
2019-03-21T16:45:05.630Z,11.60
2019-03-21T16:47:36.252Z,11.57
2019-03-21T16:50:15.586Z,11.49
2019-03-21T16:52:48.722Z,11.46
2019-03-21T16:55:19.379Z,11.45
2019-03-21T16:57:49.850Z,11.40
2019-03-21T17:00:22.131Z,11.36
2019-03-21T17:02:52.974Z,11.36
2019-03-21T17:05:23.346Z,11.36
2019-03-21T17:07:53.646Z,11.33
2019-03-21T17:10:23.995Z,11.34
2019-03-21T17:12:54.232Z,11.29
2019-03-21T17:15:26.054Z,11.28
2019-03-21T17:17:58.451Z,11.33
2019-03-21T17:20:28.934Z,11.33
2019-03-21T17:23:00.568Z,11.31
2019-03-21T17:25:31.557Z,11.31
2019-03-21T17:28:01.997Z,11.31
2019-03-21T17:30:32.578Z,11.29
2019-03-21T17:33:02.930Z,11.29
2019-03-21T17:35:36.331Z,11.31
2019-03-21T17:38:07.003Z,11.32
2019-03-21T17:40:37.662Z,11.26
2019-03-21T17:43:07.982Z,11.30
2019-03-21T17:45:38.229Z,11.27
2019-03-21T17:48:08.449Z,11.26
2019-03-21T17:50:38.750Z,11.28
2019-03-21T17:53:09.276Z,11.28
2019-03-21T17:55:39.766Z,11.28
2019-03-21T17:58:11.534Z,11.27
2019-03-21T18:00:42.192Z,11.28
2019-03-21T18:03:12.871Z,11.28
2019-03-21T18:05:43.108Z,11.28
2019-03-21T18:08:13.716Z,11.27
2019-03-21T18:10:44.494Z,11.26
2019-03-21T18:13:16.332Z,11.25
2019-03-21T18:15:47.067Z,11.26
2019-03-21T18:18:17.806Z,11.25
2019-03-21T18:20:48.457Z,11.30
2019-03-21T18:23:19.151Z,11.30
2019-03-21T18:25:49.994Z,11.28
2019-03-21T18:28:20.892Z,11.23
2019-03-21T18:30:51.281Z,11.24
2019-03-21T18:33:21.891Z,11.28
2019-03-21T18:35:52.477Z,11.23
2019-03-21T18:38:24.316Z,11.22
2019-03-21T18:40:56.546Z,11.21
2019-03-21T18:43:27.296Z,11.23
2019-03-21T18:45:57.590Z,11.21
2019-03-21T18:48:27.821Z,11.19
2019-03-21T18:50:58.468Z,11.19
2019-03-21T18:53:30.060Z,11.20
2019-03-21T18:56:00.772Z,11.23
2019-03-21T18:58:32.190Z,11.24
2019-03-21T19:01:02.764Z,11.28
2019-03-21T19:03:33.474Z,11.26
2019-03-21T19:06:05.811Z,11.24
2019-03-21T19:08:36.112Z,11.19
2019-03-21T19:11:07.945Z,11.13
2019-03-21T19:13:38.527Z,11.09
2019-03-21T19:16:10.431Z,10.99
2019-03-21T19:18:40.948Z,10.88
2019-03-21T19:21:11.267Z,10.78
2019-03-21T19:23:41.549Z,10.64
2019-03-21T19:26:11.792Z,10.55
2019-03-21T19:28:42.058Z,10.44
2019-03-21T19:31:12.316Z,10.33
2019-03-21T19:33:42.894Z,10.27
2019-03-21T19:36:13.208Z,10.23
2019-03-21T19:38:43.546Z,10.25
2019-03-21T19:41:14.198Z,10.14
2019-03-21T19:43:44.908Z,10.05
2019-03-21T19:46:18.094Z,9.98
2019-03-21T19:48:50.400Z,10.06
2019-03-21T19:51:20.684Z,10.06
2019-03-21T19:53:50.977Z,10.19
2019-03-21T19:56:21.245Z,10.21
2019-03-21T19:58:51.825Z,10.21
2019-03-21T20:01:22.210Z,10.18
2019-03-21T20:03:52.454Z,10.19
2019-03-21T20:06:22.677Z,10.20
2019-03-21T20:08:52.906Z,10.18
2019-03-21T20:11:24.752Z,10.20
2019-03-21T20:13:55.502Z,10.19
2019-03-21T20:16:25.887Z,10.16
2019-03-21T20:18:56.545Z,10.20
2019-03-21T20:21:27.099Z,10.17
2019-03-21T20:23:57.323Z,10.21
2019-03-21T20:26:27.784Z,10.24
2019-03-21T20:28:58.255Z,10.25
2019-03-21T20:31:28.535Z,10.32
2019-03-21T20:33:59.410Z,10.40
2019-03-21T20:36:29.702Z,10.40
2019-03-21T20:38:59.982Z,10.48
2019-03-21T20:41:30.418Z,10.51
2019-03-21T20:44:01.277Z,10.52
2019-03-21T20:46:31.595Z,10.63
2019-03-21T20:49:01.826Z,10.70
2019-03-21T20:51:33.847Z,10.66
2019-03-21T20:54:07.397Z,10.69
2019-03-21T20:56:36.654Z,10.66
2019-03-21T20:59:07.705Z,10.68
2019-03-21T21:01:38.244Z,10.68
2019-03-21T21:04:12.771Z,10.72
2019-03-21T21:06:51.708Z,10.72
2019-03-21T21:09:24.031Z,10.83
2019-03-21T21:11:54.796Z,10.82
2019-03-21T21:14:25.735Z,10.81
2019-03-21T21:16:56.582Z,10.84
2019-03-21T21:19:28.249Z,10.82
2019-03-21T21:22:02.326Z,10.82
2019-03-21T21:24:32.924Z,10.88
2019-03-21T21:27:04.695Z,10.95
2019-03-21T21:29:36.828Z,11.02
2019-03-21T21:32:10.286Z,11.07
2019-03-21T21:34:45.978Z,10.96
2019-03-21T21:37:16.633Z,10.92
2019-03-21T21:39:47.410Z,10.93
2019-03-21T21:42:20.325Z,10.90
2019-03-21T21:44:50.927Z,10.90
2019-03-21T21:47:21.451Z,10.88
2019-03-21T21:49:52.492Z,10.89
2019-03-21T21:52:23.669Z,10.81
2019-03-21T21:54:54.485Z,10.85
2019-03-21T21:57:24.786Z,10.94
2019-03-21T21:59:57.969Z,10.87
2019-03-21T22:02:28.305Z,10.82
2019-03-21T22:05:00.424Z,10.76
2019-03-21T22:07:31.019Z,10.76
2019-03-21T22:10:01.330Z,10.77
2019-03-21T22:12:31.786Z,10.81
2019-03-21T22:15:02.390Z,10.81
2019-03-21T22:17:32.752Z,10.72
2019-03-21T22:20:03.718Z,10.65
2019-03-21T22:22:34.502Z,10.65
2019-03-21T22:25:08.401Z,10.70
2019-03-21T22:27:38.696Z,10.77
2019-03-21T22:30:15.110Z,10.76
2019-03-21T22:32:47.371Z,10.75
2019-03-21T22:35:18.040Z,10.70
2019-03-21T22:37:48.324Z,10.76
2019-03-21T22:40:22.030Z,10.75
2019-03-21T22:42:52.268Z,10.71
2019-03-21T22:45:22.921Z,10.70
2019-03-21T22:47:53.198Z,10.72
2019-03-21T22:50:25.295Z,10.73
2019-03-21T22:52:56.831Z,10.71
2019-03-21T22:55:28.972Z,10.64
2019-03-21T22:57:59.299Z,10.68
2019-03-21T23:00:35.464Z,10.69
2019-03-21T23:03:07.001Z,10.70
2019-03-21T23:05:37.777Z,10.65
2019-03-21T23:08:08.521Z,10.66
2019-03-21T23:10:38.825Z,10.64
2019-03-21T23:13:09.511Z,10.62
2019-03-21T23:15:39.844Z,10.56
2019-03-21T23:18:10.528Z,10.54
2019-03-21T23:20:40.996Z,10.57
2019-03-21T23:23:11.584Z,10.49
2019-03-21T23:25:42.243Z,10.50
2019-03-21T23:28:12.909Z,10.42
2019-03-21T23:30:43.609Z,10.42
2019-03-21T23:33:14.380Z,10.46
2019-03-21T23:35:44.764Z,10.42
2019-03-21T23:38:16.320Z,10.51
2019-03-21T23:40:47.056Z,10.44
2019-03-21T23:43:17.717Z,10.41
2019-03-21T23:45:48.389Z,10.32
2019-03-21T23:48:18.733Z,10.31
2019-03-21T23:50:49.323Z,10.30
2019-03-21T23:53:19.788Z,10.31
2019-03-21T23:55:50.415Z,10.27
2019-03-21T23:58:22.674Z,10.28
